Time;durP1;ratioP1;P1;durP2;ratioP2;P2;SDS_P1;SDS_P2;PMS_P1;PMS_P2;Temp;Humidity;BMP_temperature;BMP_pressure;BME280_temperature;BME280_humidity;BME280_pressure;Samples;Min_cycle;Max_cycle;Signal;HPM_P1;HPM_P2
2023/05/10 00:01:06;;;;;;;7.68;6.13;;;17.50;73.00;;;;;;5016625;28;20414;-81
2023/05/10 00:03:32;;;;;;;7.57;6.30;;;17.50;73.00;;;;;;5014761;28;20026;-81
2023/05/10 00:05:58;;;;;;;7.65;6.30;;;17.50;72.90;;;;;;5014718;28;20137;-81
2023/05/10 00:08:23;;;;;;;8.30;6.07;;;17.50;72.90;;;;;;5014766;28;20026;-81
2023/05/10 00:10:49;;;;;;;7.68;6.32;;;17.50;73.00;;;;;;5014230;28;20092;-81
2023/05/10 00:13:15;;;;;;;7.45;5.93;;;17.50;73.00;;;;;;4998336;28;20490;-81
2023/05/10 00:15:41;;;;;;;7.47;6.25;;;17.50;73.00;;;;;;5030719;28;20042;-81
2023/05/10 00:18:07;;;;;;;7.50;6.25;;;17.50;73.00;;;;;;5031272;28;20066;-81
2023/05/10 00:20:33;;;;;;;8.07;6.85;;;17.40;73.00;;;;;;5014363;28;20041;-81
2023/05/10 00:22:58;;;;;;;8.60;7.07;;;17.40;73.00;;;;;;5030894;28;20479;-81
2023/05/10 00:25:24;;;;;;;8.73;6.90;;;17.40;73.00;;;;;;5014252;28;20034;-81
2023/05/10 00:27:50;;;;;;;9.15;7.25;;;17.40;73.00;;;;;;5015552;28;20037;-82
2023/05/10 00:30:16;;;;;;;8.23;6.78;;;17.40;73.00;;;;;;5015060;28;20091;-81
2023/05/10 00:32:43;;;;;;;8.88;7.25;;;17.40;73.10;;;;;;4982978;28;20113;-81
2023/05/10 00:35:08;;;;;;;9.40;7.28;;;17.40;73.10;;;;;;5015274;28;20030;-81
2023/05/10 00:37:34;;;;;;;8.18;6.68;;;17.40;73.10;;;;;;5015954;28;20061;-81
2023/05/10 00:40:00;;;;;;;9.38;7.63;;;17.40;73.10;;;;;;5031917;28;20092;-81
2023/05/10 00:42:26;;;;;;;9.57;7.85;;;17.40;73.10;;;;;;5000004;28;20041;-79
2023/05/10 00:44:53;;;;;;;9.65;7.95;;;17.40;73.20;;;;;;4999388;28;20072;-81
2023/05/10 00:47:19;;;;;;;10.55;9.15;;;17.30;73.10;;;;;;5017348;28;20038;-81
2023/05/10 00:49:45;;;;;;;9.45;8.13;;;17.40;73.20;;;;;;5016625;28;20030;-81
2023/05/10 00:52:11;;;;;;;10.63;8.43;;;17.40;73.20;;;;;;5016689;28;20037;-81
2023/05/10 00:54:37;;;;;;;9.77;8.07;;;17.30;73.20;;;;;;4999693;28;20467;-81
2023/05/10 00:57:03;;;;;;;9.85;8.15;;;17.30;73.20;;;;;;4999649;28;20144;-81
2023/05/10 00:59:29;;;;;;;10.13;8.13;;;17.30;73.30;;;;;;5015222;28;20497;-81
2023/05/10 01:01:55;;;;;;;10.55;8.20;;;17.30;73.20;;;;;;5013983;28;20060;-80
2023/05/10 01:04:25;;;;;;;10.10;8.55;;;17.30;73.30;;;;;;5013581;28;20459;-81
2023/05/10 01:06:52;;;;;;;11.23;8.88;;;17.30;73.30;;;;;;4997363;28;20034;-81
2023/05/10 01:09:18;;;;;;;11.20;9.10;;;17.30;73.40;;;;;;5029554;28;20033;-81
2023/05/10 01:11:44;;;;;;;10.98;9.13;;;17.20;73.40;;;;;;5046222;28;20041;-81
2023/05/10 01:14:10;;;;;;;11.57;9.55;;;17.20;73.40;;;;;;5013021;28;20034;-80
2023/05/10 01:16:40;;;;;;;11.02;9.07;;;17.20;73.40;;;;;;5013284;28;20053;-81
2023/05/10 01:19:27;;;;;;;10.85;9.07;;;17.20;73.40;;;;;;5014947;28;20398;-81
2023/05/10 01:22:02;;;;;;;10.95;8.75;;;17.20;73.50;;;;;;5029965;28;20458;-81
2023/05/10 01:25:00;;;;;;;11.43;9.32;;;17.20;73.40;;;;;;5013431;28;20029;-81
2023/05/10 01:27:44;;;;;;;9.80;8.20;;;17.20;73.50;;;;;;5012731;28;20112;-80
2023/05/10 01:30:16;;;;;;;12.55;10.10;;;17.20;73.50;;;;;;5046242;28;20478;-81
2023/05/10 01:33:01;;;;;;;11.95;9.85;;;17.20;73.40;;;;;;5013383;28;20052;-80
2023/05/10 01:35:51;;;;;;;11.85;9.75;;;17.20;73.50;;;;;;5014005;28;20056;-81
2023/05/10 01:38:41;;;;;;;11.45;9.15;;;17.20;73.50;;;;;;5029395;28;20065;-80
2023/05/10 01:41:16;;;;;;;10.40;8.52;;;17.10;73.40;;;;;;5014168;28;20030;-81
2023/05/10 01:44:01;;;;;;;10.82;8.75;;;17.10;73.40;;;;;;5045718;28;20058;-81
2023/05/10 01:46:33;;;;;;;10.27;8.35;;;17.10;73.50;;;;;;5046536;28;20042;-81
2023/05/10 01:49:02;;;;;;;9.80;7.88;;;17.10;73.40;;;;;;5028853;28;20037;-81
2023/05/10 01:51:37;;;;;;;12.35;9.70;;;17.10;73.50;;;;;;5012567;28;20152;-81
2023/05/10 01:54:04;;;;;;;10.48;8.60;;;17.10;73.60;;;;;;5014097;28;20034;-81
2023/05/10 01:56:34;;;;;;;12.60;9.48;;;17.10;73.60;;;;;;5045498;28;20109;-81
2023/05/10 01:59:04;;;;;;;10.88;8.88;;;17.10;73.60;;;;;;5012426;28;20030;-81
2023/05/10 02:01:30;;;;;;;12.30;9.80;;;17.10;73.60;;;;;;5029060;28;20030;-81
2023/05/10 02:03:57;;;;;;;12.60;9.57;;;17.10;73.60;;;;;;4996219;28;20030;-81
2023/05/10 02:06:24;;;;;;;11.57;9.13;;;17.10;73.60;;;;;;5045882;28;20044;-81
2023/05/10 02:08:53;;;;;;;12.07;9.40;;;17.10;73.70;;;;;;5045467;28;20045;-80
2023/05/10 02:11:21;;;;;;;11.70;9.05;;;17.10;73.70;;;;;;4996060;28;20041;-81
2023/05/10 02:13:50;;;;;;;11.25;9.02;;;17.10;73.70;;;;;;5029449;28;20439;-81
2023/05/10 02:16:18;;;;;;;11.88;9.30;;;17.10;73.70;;;;;;5012348;28;20040;-81
2023/05/10 02:18:44;;;;;;;12.13;9.07;;;17.10;73.70;;;;;;5012880;28;20033;-81
2023/05/10 02:21:12;;;;;;;12.00;9.50;;;17.10;73.70;;;;;;5028583;28;20034;-81
2023/05/10 02:23:39;;;;;;;11.57;8.93;;;17.00;73.70;;;;;;4996348;28;20486;-81
2023/05/10 02:26:06;;;;;;;12.48;9.15;;;17.00;73.70;;;;;;5045879;28;20443;-81
2023/05/10 02:28:33;;;;;;;11.93;8.93;;;17.00;73.70;;;;;;5013149;28;20084;-81
2023/05/10 02:30:59;;;;;;;11.82;9.15;;;17.00;73.70;;;;;;4983326;28;20029;-81
2023/05/10 02:33:26;;;;;;;12.80;10.00;;;17.00;73.70;;;;;;5013861;28;20077;-81
2023/05/10 02:35:53;;;;;;;12.25;9.63;;;17.00;73.70;;;;;;4997203;28;20149;-81
2023/05/10 02:38:21;;;;;;;12.27;9.68;;;17.00;73.70;;;;;;5045134;28;20130;-81
2023/05/10 02:40:48;;;;;;;12.02;9.18;;;17.10;73.80;;;;;;5028001;28;20474;-81
2023/05/10 02:43:17;;;;;;;12.05;9.30;;;17.00;73.70;;;;;;5012792;28;20041;-81
2023/05/10 02:45:45;;;;;;;11.93;9.07;;;17.00;73.80;;;;;;5028928;28;20030;-80
2023/05/10 02:48:10;;;;;;;11.95;9.63;;;17.00;73.80;;;;;;5028957;28;20113;-81
2023/05/10 02:50:37;;;;;;;12.38;9.88;;;17.00;73.80;;;;;;5014174;28;20442;-81
2023/05/10 02:53:18;;;;;;;12.63;9.77;;;17.00;73.70;;;;;;5046071;28;20038;-81
2023/05/10 02:55:49;;;;;;;12.50;9.55;;;17.00;73.90;;;;;;5012804;28;20049;-80
2023/05/10 02:58:14;;;;;;;13.60;10.25;;;17.00;73.70;;;;;;5012446;28;20040;-81
2023/05/10 03:00:40;;;;;;;12.55;9.68;;;16.90;73.70;;;;;;5012003;28;20025;-80
2023/05/10 03:03:07;;;;;;;13.98;10.27;;;17.00;73.80;;;;;;4999678;28;20037;-80
2023/05/10 03:05:33;;;;;;;13.63;10.10;;;17.00;73.80;;;;;;5015951;28;20049;-80
2023/05/10 03:08:03;;;;;;;12.60;10.13;;;16.90;73.70;;;;;;5016046;28;20057;-80
2023/05/10 03:10:32;;;;;;;13.82;10.30;;;17.00;73.80;;;;;;5016074;28;20124;-80
2023/05/10 03:13:12;;;;;;;13.77;10.23;;;17.00;73.80;;;;;;4999197;28;20018;-80
2023/05/10 03:15:51;;;;;;;11.77;9.85;;;16.90;73.90;;;;;;5031977;28;20049;-81
2023/05/10 03:18:30;;;;;;;12.88;9.27;;;16.90;73.80;;;;;;5015440;28;20092;-81
2023/05/10 03:21:02;;;;;;;13.95;11.15;;;16.90;73.80;;;;;;5016476;28;20076;-81
2023/05/10 03:23:40;;;;;;;13.38;9.70;;;16.90;73.80;;;;;;5015940;28;20450;-81
2023/05/10 03:26:07;;;;;;;12.80;10.82;;;16.90;73.90;;;;;;5031828;28;20034;-81
2023/05/10 03:28:35;;;;;;;13.68;10.48;;;16.90;73.70;;;;;;5015226;28;20061;-81
2023/05/10 03:31:05;;;;;;;12.63;10.18;;;16.90;73.80;;;;;;5031861;28;20068;-80
2023/05/10 03:33:32;;;;;;;12.50;9.75;;;16.90;73.90;;;;;;5031698;28;20025;-80
2023/05/10 03:35:58;;;;;;;12.85;10.32;;;16.90;73.90;;;;;;5014885;28;20042;-81
2023/05/10 03:38:25;;;;;;;13.95;11.20;;;16.90;73.80;;;;;;4998683;28;20049;-80
2023/05/10 03:40:51;;;;;;;14.38;11.02;;;16.90;73.90;;;;;;5016586;28;20423;-80
2023/05/10 03:43:17;;;;;;;14.32;10.60;;;16.90;73.90;;;;;;5014958;28;20045;-81
2023/05/10 03:45:42;;;;;;;14.60;11.43;;;16.90;73.90;;;;;;5014865;28;20030;-81
2023/05/10 03:48:08;;;;;;;15.02;11.05;;;16.90;73.90;;;;;;5014920;28;20029;-80
2023/05/10 03:50:34;;;;;;;14.43;11.23;;;16.90;73.90;;;;;;5014699;28;20030;-80
2023/05/10 03:53:00;;;;;;;13.68;10.57;;;16.90;73.90;;;;;;5014669;28;20022;-80
2023/05/10 03:55:28;;;;;;;14.20;11.00;;;16.90;73.90;;;;;;5014635;28;20038;-80
2023/05/10 03:57:54;;;;;;;14.48;11.38;;;16.80;73.90;;;;;;5015226;28;20029;-80
2023/05/10 04:00:21;;;;;;;15.13;11.55;;;16.80;73.90;;;;;;4982487;28;20034;-82
2023/05/10 04:02:50;;;;;;;14.25;11.52;;;16.80;73.90;;;;;;5015106;28;20034;-80
2023/05/10 04:05:18;;;;;;;13.68;10.65;;;16.90;73.90;;;;;;5047469;28;20057;-81
2023/05/10 04:07:44;;;;;;;12.85;10.35;;;16.90;73.90;;;;;;5014357;28;20041;-82
2023/05/10 04:10:11;;;;;;;14.57;11.25;;;16.80;73.90;;;;;;4997807;28;20021;-80
2023/05/10 04:12:36;;;;;;;14.60;11.52;;;16.80;73.90;;;;;;5013894;28;20046;-81
2023/05/10 04:15:02;;;;;;;14.35;11.65;;;16.80;73.90;;;;;;4998018;28;20034;-81
2023/05/10 04:17:28;;;;;;;14.93;11.88;;;16.80;74.00;;;;;;4997996;28;20030;-81
2023/05/10 04:19:54;;;;;;;15.25;11.80;;;16.80;74.00;;;;;;5014849;28;20037;-81
2023/05/10 04:22:20;;;;;;;14.05;10.88;;;16.80;74.00;;;;;;4998511;28;20030;-80
2023/05/10 04:24:46;;;;;;;14.40;10.70;;;16.80;73.90;;;;;;4997537;28;20041;-80
2023/05/10 04:27:12;;;;;;;14.55;11.48;;;16.80;73.90;;;;;;5014300;28;20041;-80
2023/05/10 04:29:38;;;;;;;14.77;11.57;;;16.80;73.80;;;;;;4997500;28;20033;-80
2023/05/10 04:32:04;;;;;;;14.30;10.90;;;16.80;73.90;;;;;;4997955;28;20038;-81
2023/05/10 04:34:30;;;;;;;12.85;10.35;;;16.80;74.00;;;;;;5047702;28;20382;-80
2023/05/10 04:36:55;;;;;;;13.85;11.23;;;16.70;73.90;;;;;;5013599;28;20046;-80
2023/05/10 04:39:21;;;;;;;14.50;11.20;;;16.70;73.90;;;;;;4997167;28;20046;-81
2023/05/10 04:41:47;;;;;;;13.57;10.73;;;16.70;73.90;;;;;;4997792;28;20117;-85
2023/05/10 04:44:12;;;;;;;14.15;11.25;;;16.70;73.90;;;;;;4981345;28;20034;-80
2023/05/10 04:46:38;;;;;;;12.38;9.63;;;16.70;73.80;;;;;;4997413;28;20546;-79
2023/05/10 04:49:04;;;;;;;13.50;10.70;;;16.70;73.90;;;;;;5013342;28;20394;-81
2023/05/10 04:51:31;;;;;;;14.13;10.60;;;16.70;73.90;;;;;;5013728;28;20034;-81
2023/05/10 04:53:56;;;;;;;13.52;10.73;;;16.70;73.90;;;;;;4981512;28;20474;-80
2023/05/10 04:56:22;;;;;;;13.40;10.35;;;16.70;73.90;;;;;;5013665;28;20180;-81
2023/05/10 04:58:48;;;;;;;13.32;11.02;;;16.60;73.80;;;;;;5013504;28;20105;-80
2023/05/10 05:01:13;;;;;;;13.55;10.73;;;16.70;73.90;;;;;;5013914;28;20038;-79
2023/05/10 05:03:39;;;;;;;13.20;10.60;;;16.70;73.90;;;;;;5015006;28;20022;-80
2023/05/10 05:06:05;;;;;;;13.82;10.68;;;16.70;73.90;;;;;;4997738;28;20103;-80
2023/05/10 05:08:31;;;;;;;12.88;10.43;;;16.70;73.90;;;;;;5013310;28;20026;-81
2023/05/10 05:10:57;;;;;;;12.65;10.27;;;16.70;73.90;;;;;;5014590;28;20037;-81
2023/05/10 05:13:22;;;;;;;13.43;10.85;;;16.60;73.90;;;;;;4997483;28;20033;-87
2023/05/10 05:15:48;;;;;;;13.45;10.57;;;16.60;73.90;;;;;;5016907;28;20045;-80
2023/05/10 05:18:14;;;;;;;15.13;11.13;;;16.60;73.90;;;;;;5014223;28;20105;-80
2023/05/10 05:20:40;;;;;;;13.10;10.35;;;16.60;73.90;;;;;;4980931;28;20037;-81
2023/05/10 05:23:06;;;;;;;12.95;10.13;;;16.60;73.90;;;;;;5013928;28;20489;-83
2023/05/10 05:25:32;;;;;;;14.27;10.98;;;16.60;73.90;;;;;;5013261;28;20018;-82
2023/05/10 05:27:57;;;;;;;13.27;10.18;;;16.60;73.90;;;;;;4997420;28;20386;-82
2023/05/10 05:30:23;;;;;;;13.63;10.60;;;16.60;73.90;;;;;;5012642;28;20030;-81
2023/05/10 05:32:49;;;;;;;14.38;10.55;;;16.60;73.90;;;;;;4996922;28;20045;-82
2023/05/10 05:35:14;;;;;;;13.50;10.77;;;16.60;73.90;;;;;;5012524;28;20510;-81
2023/05/10 05:37:40;;;;;;;12.90;10.00;;;16.60;73.80;;;;;;5012617;28;20062;-81
2023/05/10 05:40:07;;;;;;;13.00;10.35;;;16.60;73.90;;;;;;5013355;28;20030;-81
2023/05/10 05:42:33;;;;;;;12.27;10.32;;;16.60;73.90;;;;;;5013363;28;20038;-81
2023/05/10 05:44:58;;;;;;;13.88;10.40;;;16.60;73.90;;;;;;4996621;28;20037;-81
2023/05/10 05:47:24;;;;;;;12.10;10.02;;;16.50;73.80;;;;;;5029398;28;20033;-80
2023/05/10 05:49:50;;;;;;;13.60;10.40;;;16.60;73.90;;;;;;5029054;28;20037;-80
2023/05/10 05:52:16;;;;;;;12.95;10.15;;;16.60;73.90;;;;;;5012912;28;20084;-80
2023/05/10 05:54:42;;;;;;;14.35;10.45;;;16.60;73.90;;;;;;5013534;28;20404;-80
2023/05/10 05:57:08;;;;;;;12.57;9.27;;;16.60;73.90;;;;;;5046103;28;20037;-80
2023/05/10 05:59:34;;;;;;;12.45;9.82;;;16.60;74.00;;;;;;5014278;28;20026;-81
2023/05/10 06:02:00;;;;;;;13.48;10.25;;;16.60;74.00;;;;;;5012803;28;20088;-81
2023/05/10 06:04:26;;;;;;;12.77;10.10;;;16.60;74.00;;;;;;4996537;28;20022;-82
2023/05/10 06:06:52;;;;;;;12.40;9.32;;;16.60;73.90;;;;;;4996785;28;20030;-82
2023/05/10 06:09:18;;;;;;;13.93;10.55;;;16.50;73.90;;;;;;5029172;28;20022;-86
2023/05/10 06:11:44;;;;;;;12.40;9.82;;;16.60;74.00;;;;;;5012878;28;20513;-82
2023/05/10 06:14:10;;;;;;;12.75;9.75;;;16.60;74.00;;;;;;4996876;28;20474;-81
2023/05/10 06:16:36;;;;;;;12.70;9.75;;;16.50;74.00;;;;;;4996056;28;20034;-81
2023/05/10 06:19:02;;;;;;;13.25;9.52;;;16.60;74.00;;;;;;5028789;28;20037;-81
2023/05/10 06:21:28;;;;;;;12.43;10.02;;;16.60;74.10;;;;;;4997138;28;20030;-81
2023/05/10 06:23:53;;;;;;;12.60;9.38;;;16.60;74.10;;;;;;5013085;28;20050;-81
2023/05/10 06:26:20;;;;;;;13.05;10.20;;;16.60;74.10;;;;;;5046349;28;20037;-86
2023/05/10 06:28:46;;;;;;;12.30;9.73;;;16.50;74.00;;;;;;4980487;28;20117;-81
2023/05/10 06:31:12;;;;;;;12.48;9.07;;;16.50;74.00;;;;;;5012375;28;20136;-81
2023/05/10 06:33:37;;;;;;;13.20;10.32;;;16.60;74.00;;;;;;4996179;28;20027;-84
2023/05/10 06:36:03;;;;;;;11.52;8.85;;;16.60;74.00;;;;;;4996840;28;20057;-80
2023/05/10 06:38:29;;;;;;;13.45;10.35;;;16.60;74.10;;;;;;4999879;28;20074;-79
2023/05/10 06:40:55;;;;;;;13.02;9.27;;;16.50;74.00;;;;;;4999857;28;20112;-79
2023/05/10 06:43:21;;;;;;;14.23;10.55;;;16.60;74.10;;;;;;5016050;28;20042;-79
2023/05/10 06:45:48;;;;;;;13.35;9.98;;;16.60;74.70;;;;;;4983635;28;20034;-80
2023/05/10 06:48:13;;;;;;;12.38;9.43;;;16.50;74.00;;;;;;5018069;28;20046;-80
2023/05/10 06:50:39;;;;;;;13.15;10.55;;;16.60;74.10;;;;;;5016717;28;20037;-79
2023/05/10 06:53:05;;;;;;;12.30;10.07;;;16.60;74.10;;;;;;4999623;28;20463;-79
2023/05/10 06:55:31;;;;;;;13.18;9.70;;;16.60;74.00;;;;;;4999676;28;20459;-79
2023/05/10 06:57:56;;;;;;;13.35;10.02;;;16.50;74.00;;;;;;5015914;28;20030;-80
2023/05/10 07:00:22;;;;;;;12.40;9.38;;;16.60;74.00;;;;;;5016821;28;20041;-80
2023/05/10 07:02:48;;;;;;;13.30;10.10;;;16.60;74.00;;;;;;5032876;28;20526;-80
2023/05/10 07:05:14;;;;;;;12.40;9.57;;;16.60;74.00;;;;;;5015727;28;20030;-79
2023/05/10 07:07:40;;;;;;;12.23;9.38;;;16.60;74.10;;;;;;5016044;28;20034;-79
2023/05/10 07:10:07;;;;;;;12.05;9.02;;;16.60;74.10;;;;;;5016579;28;20510;-80
2023/05/10 07:12:33;;;;;;;12.55;9.95;;;16.60;74.10;;;;;;5015613;28;20037;-80
2023/05/10 07:14:59;;;;;;;12.95;9.48;;;16.60;74.10;;;;;;5049425;28;20359;-79
2023/05/10 07:17:25;;;;;;;12.40;9.70;;;16.60;74.10;;;;;;5015507;28;20108;-79
2023/05/10 07:19:50;;;;;;;13.18;10.02;;;16.60;74.10;;;;;;5017131;28;20344;-80
2023/05/10 07:22:16;;;;;;;13.10;10.27;;;16.60;74.00;;;;;;5015323;28;20034;-80
2023/05/10 07:24:42;;;;;;;12.38;10.02;;;16.60;74.00;;;;;;5015361;28;20037;-80
2023/05/10 07:27:08;;;;;;;14.55;11.02;;;16.60;74.10;;;;;;5015703;28;20089;-77
2023/05/10 07:29:35;;;;;;;14.05;10.55;;;16.60;74.00;;;;;;5015424;28;20121;-79
2023/05/10 07:32:01;;;;;;;13.48;10.10;;;16.60;74.10;;;;;;5016556;28;20030;-79
2023/05/10 07:34:27;;;;;;;13.02;9.80;;;16.60;74.10;;;;;;5050639;28;20038;-79
2023/05/10 07:36:52;;;;;;;14.02;10.15;;;16.60;74.10;;;;;;5017055;28;20041;-79
2023/05/10 07:39:20;;;;;;;11.77;9.85;;;16.60;74.00;;;;;;5017518;28;20467;-79
2023/05/10 07:41:46;;;;;;;13.25;10.52;;;16.60;74.00;;;;;;5016666;28;20034;-79
2023/05/10 07:44:12;;;;;;;14.57;10.85;;;16.60;74.00;;;;;;5048981;28;20036;-79
2023/05/10 07:46:37;;;;;;;14.82;10.82;;;16.60;74.10;;;;;;5017008;28;20030;-79
2023/05/10 07:49:03;;;;;;;14.05;10.30;;;16.60;74.70;;;;;;5046934;28;20482;-78
2023/05/10 07:51:29;;;;;;;15.45;10.63;;;16.60;74.10;;;;;;5014950;28;20069;-79
2023/05/10 07:53:55;;;;;;;14.25;10.40;;;16.60;74.10;;;;;;5015532;28;20049;-79
2023/05/10 07:56:22;;;;;;;12.82;9.60;;;16.70;74.10;;;;;;5014816;28;20044;-79
2023/05/10 07:58:48;;;;;;;13.13;9.63;;;16.60;74.10;;;;;;5016293;28;20144;-79
2023/05/10 08:01:14;;;;;;;14.75;11.27;;;16.60;74.10;;;;;;5014900;28;20030;-79
2023/05/10 08:03:39;;;;;;;13.18;10.02;;;16.70;74.10;;;;;;4998644;28;20033;-79
2023/05/10 08:06:05;;;;;;;13.63;10.85;;;16.70;74.10;;;;;;5015482;28;20044;-79
2023/05/10 08:08:31;;;;;;;13.45;10.70;;;16.70;74.10;;;;;;5014994;28;20022;-79
2023/05/10 08:10:57;;;;;;;12.45;9.93;;;16.70;74.10;;;;;;5014446;28;20052;-79
2023/05/10 08:13:23;;;;;;;13.05;9.73;;;16.70;74.10;;;;;;5030725;28;20538;-79
2023/05/10 08:15:48;;;;;;;13.55;10.13;;;16.70;74.10;;;;;;5014364;28;20042;-79
2023/05/10 08:18:14;;;;;;;13.90;10.68;;;16.80;74.20;;;;;;5014576;28;20120;-79
2023/05/10 08:20:40;;;;;;;12.50;9.57;;;16.80;74.10;;;;;;5015819;28;20371;-79
2023/05/10 08:23:05;;;;;;;13.10;10.20;;;16.80;74.10;;;;;;5014089;28;20026;-78
2023/05/10 08:25:32;;;;;;;13.48;9.57;;;16.80;74.10;;;;;;4998668;28;20117;-79
2023/05/10 08:27:57;;;;;;;13.57;10.00;;;16.80;74.10;;;;;;4998068;28;20516;-79
2023/05/10 08:30:23;;;;;;;13.15;9.80;;;16.90;74.10;;;;;;5015668;28;20029;-78
2023/05/10 08:32:49;;;;;;;13.43;9.98;;;16.90;74.10;;;;;;5014744;28;20037;-78
2023/05/10 08:35:15;;;;;;;13.35;10.20;;;16.90;74.10;;;;;;4997870;28;20388;-79
2023/05/10 08:37:41;;;;;;;13.60;10.43;;;16.90;74.10;;;;;;5046767;28;20537;-78
2023/05/10 08:40:10;;;;;;;13.10;10.05;;;16.90;74.00;;;;;;5015620;28;20034;-79
2023/05/10 08:42:38;;;;;;;13.07;10.13;;;17.00;74.10;;;;;;5030759;28;20049;-79
2023/05/10 08:45:05;;;;;;;12.93;10.13;;;17.00;74.00;;;;;;5030348;28;20125;-79
2023/05/10 08:47:31;;;;;;;14.13;10.40;;;17.00;74.00;;;;;;5013997;28;20061;-79
2023/05/10 08:49:59;;;;;;;13.23;9.75;;;17.00;74.00;;;;;;5015246;28;20506;-79
2023/05/10 08:52:28;;;;;;;12.35;9.00;;;17.10;74.00;;;;;;4998459;28;20530;-79
2023/05/10 08:54:54;;;;;;;12.88;9.45;;;17.10;74.00;;;;;;5030181;28;20084;-79
2023/05/10 08:57:20;;;;;;;12.18;9.38;;;17.10;74.00;;;;;;5046723;28;20475;-79
2023/05/10 08:59:46;;;;;;;11.27;9.15;;;17.10;73.90;;;;;;4997016;28;20038;-79
2023/05/10 09:02:13;;;;;;;12.25;9.63;;;17.10;73.90;;;;;;5013782;28;20030;-79
2023/05/10 09:04:38;;;;;;;11.30;8.93;;;17.20;73.90;;;;;;5014173;28;20344;-79
2023/05/10 09:07:04;;;;;;;11.57;8.88;;;17.20;73.90;;;;;;4997216;28;20041;-79
2023/05/10 09:09:30;;;;;;;12.77;9.18;;;17.30;74.00;;;;;;4997422;28;20038;-79
2023/05/10 09:11:57;;;;;;;11.70;9.70;;;17.30;73.90;;;;;;5013175;28;20097;-79
2023/05/10 09:14:24;;;;;;;11.60;9.02;;;17.30;73.90;;;;;;5014576;28;20026;-79
2023/05/10 09:16:50;;;;;;;12.40;9.10;;;17.30;73.90;;;;;;5013911;28;20034;-79
2023/05/10 09:19:16;;;;;;;10.60;7.97;;;17.30;73.90;;;;;;5013667;28;20053;-80
2023/05/10 09:21:42;;;;;;;10.50;8.00;;;17.30;73.90;;;;;;5012999;28;20109;-77
2023/05/10 09:24:08;;;;;;;11.30;8.45;;;17.40;73.90;;;;;;5046986;28;20048;-76
2023/05/10 09:26:35;;;;;;;10.05;7.47;;;17.40;73.80;;;;;;5014338;28;20038;-80
2023/05/10 09:29:02;;;;;;;10.07;7.15;;;17.40;73.90;;;;;;5014508;28;20026;-79
2023/05/10 09:31:56;;;;;;;9.43;6.75;;;17.50;73.90;;;;;;4997650;28;20037;-81
2023/05/10 09:34:33;;;;;;;9.00;6.10;;;17.50;74.10;;;;;;5029542;28;20049;-80
2023/05/10 09:37:01;;;;;;;8.82;6.15;;;17.50;74.00;;;;;;5029827;28;20034;-81
2023/05/10 09:39:36;;;;;;;7.78;5.65;;;17.60;74.00;;;;;;5029212;28;20053;-80
2023/05/10 09:42:04;;;;;;;9.38;6.05;;;17.60;74.00;;;;;;5013620;28;20057;-85
2023/05/10 09:44:30;;;;;;;9.05;5.82;;;17.70;74.00;;;;;;4997576;28;20030;-81
2023/05/10 09:46:56;;;;;;;8.02;5.50;;;17.70;74.00;;;;;;5013139;28;20041;-81
2023/05/10 09:49:22;;;;;;;8.77;6.40;;;17.70;74.00;;;;;;5013642;28;20366;-80
2023/05/10 09:52:00;;;;;;;8.10;5.90;;;17.70;73.90;;;;;;5012872;28;20030;-80
2023/05/10 09:54:26;;;;;;;8.02;5.85;;;17.80;73.90;;;;;;5013565;28;20170;-81
2023/05/10 09:56:52;;;;;;;8.30;5.93;;;17.80;73.80;;;;;;4996576;28;20137;-85
2023/05/10 09:59:18;;;;;;;6.82;5.28;;;17.90;73.80;;;;;;5013338;28;20033;-83
2023/05/10 10:01:59;;;;;;;7.03;5.40;;;17.90;73.70;;;;;;5013564;28;20424;-82
2023/05/10 10:04:25;;;;;;;6.28;4.63;;;18.00;73.70;;;;;;5012795;28;20105;-83
2023/05/10 10:07:05;;;;;;;7.35;4.85;;;18.00;73.60;;;;;;4996844;28;20034;-80
2023/05/10 10:09:31;;;;;;;7.10;5.20;;;18.10;73.60;;;;;;5014063;28;20369;-82
2023/05/10 10:11:57;;;;;;;6.50;4.75;;;18.10;73.40;;;;;;5012351;28;20096;-81
2023/05/10 10:14:24;;;;;;;7.28;5.40;;;18.20;73.40;;;;;;5012642;28;20538;-80
2023/05/10 10:16:53;;;;;;;6.97;4.95;;;18.20;73.30;;;;;;5012754;28;20030;-80
2023/05/10 10:19:20;;;;;;;7.20;4.95;;;18.30;73.30;;;;;;5013861;28;20022;-79
2023/05/10 10:21:47;;;;;;;5.97;4.43;;;18.30;73.20;;;;;;5012734;28;20091;-81
2023/05/10 10:24:13;;;;;;;6.18;4.63;;;18.40;73.10;;;;;;5029028;28;20026;-81
2023/05/10 10:26:40;;;;;;;6.00;4.60;;;18.40;73.00;;;;;;5012839;28;20029;-81
2023/05/10 10:29:44;;;;;;;6.07;4.50;;;18.40;72.90;;;;;;5029162;28;20467;-82
2023/05/10 10:32:28;;;;;;;6.25;4.32;;;18.50;73.00;;;;;;5009981;28;20095;-80
2023/05/10 10:34:55;;;;;;;5.70;3.83;;;18.50;72.80;;;;;;5013306;28;20475;-82
2023/05/10 10:37:21;;;;;;;6.20;4.28;;;18.50;72.60;;;;;;4996080;28;20304;-81
2023/05/10 10:39:49;;;;;;;5.53;3.80;;;18.60;72.70;;;;;;5013597;28;20053;-81
2023/05/10 10:42:45;;;;;;;5.70;4.25;;;18.60;72.60;;;;;;5048788;28;20030;-81
2023/05/10 10:45:13;;;;;;;5.78;4.38;;;18.70;72.70;;;;;;5017257;28;20025;-81
2023/05/10 10:47:38;;;;;;;5.63;4.25;;;18.70;72.60;;;;;;5017695;28;20088;-80
2023/05/10 10:50:07;;;;;;;6.85;4.47;;;18.70;72.50;;;;;;4997086;28;20034;-80
2023/05/10 10:52:35;;;;;;;5.70;4.25;;;18.70;72.40;;;;;;5013000;28;20041;-80
2023/05/10 10:55:11;;;;;;;5.93;4.40;;;18.80;72.50;;;;;;5013572;28;20030;-80
2023/05/10 10:57:59;;;;;;;5.57;3.95;;;18.80;72.40;;;;;;5028414;28;20069;-80
2023/05/10 11:00:36;;;;;;;6.43;4.47;;;18.80;72.40;;;;;;5014011;28;20120;-80
2023/05/10 11:03:13;;;;;;;5.80;4.10;;;18.80;72.30;;;;;;5013381;28;20026;-79
2023/05/10 11:05:49;;;;;;;5.43;3.60;;;18.80;72.30;;;;;;5012753;28;20112;-79
2023/05/10 11:08:17;;;;;;;6.32;4.40;;;18.90;72.30;;;;;;5028443;28;20113;-79
2023/05/10 11:10:53;;;;;;;6.40;4.40;;;18.90;72.20;;;;;;5028888;28;20022;-79
2023/05/10 11:13:32;;;;;;;5.32;3.80;;;18.90;72.30;;;;;;5012009;28;20167;-82
2023/05/10 11:15:58;;;;;;;5.65;4.30;;;18.90;72.20;;;;;;5011848;28;20131;-79
2023/05/10 11:18:29;;;;;;;6.47;4.20;;;19.00;72.10;;;;;;5012455;28;20069;-82
2023/05/10 11:20:55;;;;;;;6.20;3.88;;;19.00;72.20;;;;;;5044637;28;20030;-79
2023/05/10 11:23:21;;;;;;;5.60;3.70;;;19.00;72.10;;;;;;5014421;28;20041;-79
2023/05/10 11:25:48;;;;;;;5.07;3.75;;;19.00;72.00;;;;;;5031859;28;20121;-78
2023/05/10 11:28:14;;;;;;;5.78;4.15;;;19.10;72.10;;;;;;5032628;28;20091;-79
2023/05/10 11:30:41;;;;;;;5.80;4.10;;;19.10;72.00;;;;;;5031901;28;20030;-80
2023/05/10 11:33:08;;;;;;;6.25;4.28;;;19.10;72.00;;;;;;5015392;28;20053;-79
2023/05/10 11:35:41;;;;;;;6.05;4.32;;;19.20;72.00;;;;;;4998764;28;20033;-80
2023/05/10 11:38:08;;;;;;;5.07;4.03;;;19.20;72.00;;;;;;5031650;28;20108;-81
2023/05/10 11:40:35;;;;;;;5.88;4.22;;;19.20;71.90;;;;;;4998990;28;20038;-80
2023/05/10 11:43:01;;;;;;;5.88;4.10;;;19.30;71.90;;;;;;5015062;28;20037;-81
2023/05/10 11:45:31;;;;;;;5.00;3.65;;;19.30;71.80;;;;;;5048272;28;20034;-82
2023/05/10 11:47:58;;;;;;;5.75;4.10;;;19.30;71.80;;;;;;5015720;28;20066;-82
2023/05/10 11:50:24;;;;;;;5.95;4.07;;;19.30;71.70;;;;;;5015331;28;20084;-81
2023/05/10 11:52:58;;;;;;;5.90;4.22;;;19.40;71.70;;;;;;5014930;28;20088;-81
2023/05/10 11:55:24;;;;;;;5.67;3.80;;;19.40;71.70;;;;;;5016306;28;20034;-83
2023/05/10 11:57:54;;;;;;;5.88;4.07;;;19.50;71.60;;;;;;5031576;28;20029;-84
2023/05/10 12:00:20;;;;;;;5.60;4.03;;;19.50;71.60;;;;;;5031951;28;20374;-83
2023/05/10 12:02:46;;;;;;;5.65;3.83;;;19.50;71.40;;;;;;4998862;28;20125;-83
2023/05/10 12:05:13;;;;;;;4.85;3.60;;;19.60;71.50;;;;;;4998696;28;20069;-83
2023/05/10 12:07:38;;;;;;;5.32;3.72;;;19.60;71.40;;;;;;4998950;28;20034;-89
2023/05/10 12:10:17;;;;;;;5.70;4.30;;;19.70;71.40;;;;;;5015175;28;20030;-85
2023/05/10 12:12:50;;;;;;;5.50;4.20;;;19.70;71.40;;;;;;5031879;28;20034;-83
2023/05/10 12:15:24;;;;;;;4.70;3.60;;;19.70;71.30;;;;;;5015727;28;20026;-84
2023/05/10 12:17:50;;;;;;;5.78;3.95;;;19.80;71.30;;;;;;5015726;28;20060;-81
2023/05/10 12:20:21;;;;;;;6.25;3.92;;;19.80;71.20;;;;;;5031355;28;20541;-80
2023/05/10 12:22:50;;;;;;;5.15;3.58;;;19.90;71.20;;;;;;5014385;28;20041;-80
2023/05/10 12:25:17;;;;;;;5.40;4.10;;;19.90;71.10;;;;;;4998657;28;20418;-79
2023/05/10 12:27:54;;;;;;;5.65;3.83;;;20.00;71.10;;;;;;5013981;28;20471;-79
2023/05/10 12:30:28;;;;;;;5.43;3.80;;;20.00;71.10;;;;;;5030748;28;20030;-79
2023/05/10 12:33:00;;;;;;;5.22;3.50;;;20.00;71.00;;;;;;5013997;28;20030;-80
2023/05/10 12:35:26;;;;;;;4.65;3.40;;;20.10;70.90;;;;;;5029856;28;20026;-80
2023/05/10 12:37:51;;;;;;;5.50;3.53;;;20.10;70.90;;;;;;4997478;28;20075;-80
2023/05/10 12:40:17;;;;;;;5.03;3.58;;;20.20;70.90;;;;;;5047055;28;20161;-79